createdAt,value
2023-03-23T16:01:26.500Z,33.06
2023-03-23T16:06:32.702Z,33.13
2023-03-23T16:11:35.146Z,33.92
2023-03-23T16:16:53.267Z,33.91
2023-03-23T16:21:55.746Z,34.37
2023-03-23T16:26:58.688Z,35.62
2023-03-23T16:32:00.895Z,36.85
2023-03-23T16:37:03.188Z,38.58
2023-03-23T16:42:05.572Z,39.29
2023-03-23T16:47:07.825Z,40.01
2023-03-23T16:52:10.152Z,40.72
2023-03-23T16:57:13.123Z,41.48
2023-03-23T17:02:15.718Z,41.53
2023-03-23T17:07:17.895Z,42.24
2023-03-23T17:12:20.409Z,42.54
2023-03-23T17:17:24.383Z,43.19
2023-03-23T17:22:26.938Z,43.56
2023-03-23T17:27:30.145Z,44.24
2023-03-23T17:32:32.331Z,44.67
2023-03-23T17:37:36.505Z,44.86
2023-03-23T17:42:38.923Z,45.11
2023-03-23T17:47:41.316Z,45.61
2023-03-23T17:52:43.912Z,45.67
2023-03-23T17:57:46.289Z,46.18
2023-03-23T18:02:48.647Z,46.60
2023-03-23T18:07:51.461Z,47.15
2023-03-23T18:12:53.706Z,47.25
2023-03-23T18:17:57.275Z,47.35
2023-03-23T18:22:59.493Z,47.53
2023-03-23T18:28:04.831Z,47.67
2023-03-23T18:33:07.946Z,47.91
2023-03-23T18:38:10.936Z,48.34
2023-03-23T18:43:14.045Z,48.68
2023-03-23T18:48:16.520Z,48.72
2023-03-23T18:53:20.676Z,48.69
2023-03-23T18:58:22.873Z,49.12
2023-03-23T19:03:26.162Z,49.62
2023-03-23T19:08:29.689Z,49.64
2023-03-23T19:13:37.558Z,50.73
2023-03-23T19:18:41.082Z,50.39
2023-03-23T19:23:43.284Z,50.17
2023-03-23T19:29:23.345Z,50.35
2023-03-23T19:34:08.593Z,50.52
2023-03-23T19:39:11.293Z,50.80
2023-03-23T19:44:13.555Z,50.85
2023-03-23T19:49:15.904Z,50.97
2023-03-23T19:54:19.624Z,50.89
2023-03-23T19:59:22.548Z,51.23
2023-03-23T20:04:24.986Z,51.04
2023-03-23T20:09:27.209Z,51.64
2023-03-23T20:14:29.534Z,51.95
2023-03-23T20:19:31.755Z,52.20
2023-03-23T20:24:34.544Z,51.80
2023-03-23T20:29:39.493Z,51.97
2023-03-23T20:34:42.558Z,52.29
2023-03-23T20:39:46.348Z,52.22
2023-03-23T20:44:48.500Z,52.67
2023-03-23T20:49:52.830Z,52.87
2023-03-23T20:54:56.847Z,52.53
2023-03-23T20:59:59.128Z,52.74
2023-03-23T21:05:05.331Z,53.05
2023-03-23T21:10:07.723Z,53.21
2023-03-23T21:15:10.417Z,53.19
2023-03-23T21:20:13.632Z,54.14
2023-03-23T21:25:16.198Z,53.47
2023-03-23T21:30:19.400Z,53.40
2023-03-23T21:35:21.587Z,53.43
2023-03-23T21:40:23.799Z,53.36
2023-03-23T21:45:26.688Z,53.61
2023-03-23T21:50:30.351Z,53.68
2023-03-23T21:55:34.373Z,53.90
2023-03-23T22:00:36.704Z,54.16
2023-03-23T22:05:42.098Z,54.83
2023-03-23T22:11:00.792Z,54.87
2023-03-23T22:16:06.341Z,54.36
2023-03-23T22:21:08.594Z,54.26
2023-03-23T22:26:11.689Z,54.95
2023-03-23T22:31:19.112Z,55.72
2023-03-23T22:36:22.419Z,55.35
2023-03-23T22:41:30.601Z,54.50
2023-03-23T22:46:32.946Z,54.58
2023-03-23T22:51:37.270Z,54.68
2023-03-23T22:56:40.029Z,54.38
2023-03-23T23:01:42.632Z,54.51
2023-03-23T23:06:44.770Z,55.06
2023-03-23T23:11:47.324Z,54.30
2023-03-23T23:16:49.793Z,54.15
2023-03-23T23:21:51.929Z,54.88
2023-03-23T23:26:54.403Z,55.03
2023-03-23T23:31:56.676Z,54.67
2023-03-23T23:36:59.881Z,54.63
2023-03-23T23:42:02.210Z,54.39
2023-03-23T23:47:05.427Z,54.41
2023-03-23T23:52:08.743Z,54.84
2023-03-23T23:57:10.915Z,55.26
